Pagina principale
METAR-TAF:

METAR-TAF

Aeroporti :

Kecskemét, Ungheria

latitudine: 46-55N, longitudine: 019-45E, altezza: 113 m

Osservazione

Il bollettino è stato emesso 26 minuti fa, alle 10:15 UTC
Vento 4 kt da est/sud-est
Temperature 20°C
Umidità 28%
Pressione 1024 hPa
Visibilità 10 km o più
nessuna nube inferiore a 1500 m e nessun cumulonembo

METAR: LHKE 151015Z 12004KT CAVOK 20/01 Q1024 NOSIG RMK BLU

Ora: 12:41 (10:41 UTC)

Previsione

Il bollettino è stato emesso 2 ore e 26 minuti fa, alle 08:15 UTC
Previsione valida dal 15 alle 09 UTC al 15 alle 18 UTC
Vento 6 kt da est
Visibilità 10 km o più
nessuna nube inferiore a 1500 m e nessun cumulonembo
Evoluzione graduale
dal 15 alle 15 UTC al 15 alle 18 UTC
Vento 3 kt da direzioni variabili

TAF: LHKE 150815Z 1509/1518 08006KT CAVOK BECMG 1515/1518 VRB03KT

Osservazioni e previsioni meteorologiche di più di 4000 aeroporti (messaggi METAR e TAF).

Le stazioni disponibili sono rappresentate dai dischi gialli e rossi sulla carta.

Puntare il mouse per vedere il nome della stazione.

Clicca sopra per visualizzare le osservazioni e previsioni meteorologiche.

Per cambiare la mappa : fare clic sui pulsanti verdi con una croce nera per ingrandire, il pulsante verde con un trattino per diminuire, o sulla freccia verde per le mappe adiacenti.


METAR-TAF: